createdAt,value
2019-01-13T00:01:10.468Z,97.83
2019-01-13T00:03:40.589Z,97.83
2019-01-13T00:06:11.002Z,97.88
2019-01-13T00:08:41.528Z,97.76
2019-01-13T00:11:11.905Z,97.67
2019-01-13T00:13:42.498Z,97.45
2019-01-13T00:16:12.884Z,97.34
2019-01-13T00:18:43.380Z,97.05
2019-01-13T00:21:13.742Z,97.05
2019-01-13T00:23:44.406Z,97.19
2019-01-13T00:26:14.806Z,97.02
2019-01-13T00:28:46.427Z,97.13
2019-01-13T00:31:16.585Z,97.17
2019-01-13T00:33:46.702Z,97.49
2019-01-13T00:36:17.297Z,97.25
2019-01-13T00:38:47.669Z,96.86
2019-01-13T00:41:18.185Z,96.77
2019-01-13T00:43:48.573Z,96.68
2019-01-13T00:46:18.683Z,96.74
2019-01-13T00:48:48.716Z,96.82
2019-01-13T00:51:19.101Z,96.75
2019-01-13T00:53:49.152Z,96.61
2019-01-13T00:56:19.366Z,96.27
2019-01-13T00:58:49.724Z,96.27
2019-01-13T01:01:20.259Z,96.12
2019-01-13T01:03:50.840Z,96.01
2019-01-13T01:06:21.453Z,95.85
2019-01-13T01:08:51.630Z,95.60
2019-01-13T01:11:22.562Z,95.47
2019-01-13T01:13:52.945Z,95.67
2019-01-13T01:16:23.474Z,95.75
2019-01-13T01:18:55.714Z,95.71
2019-01-13T01:21:26.213Z,95.72
2019-01-13T01:23:56.455Z,96.17
2019-01-13T01:26:26.763Z,96.32
2019-01-13T01:28:57.162Z,96.02
2019-01-13T01:31:27.287Z,96.22
2019-01-13T01:33:57.759Z,96.10
2019-01-13T01:36:28.343Z,96.57
2019-01-13T01:38:58.698Z,96.57
2019-01-13T01:41:29.627Z,96.61
2019-01-13T01:43:59.683Z,96.67
2019-01-13T01:46:30.076Z,97.68
2019-01-13T01:49:00.243Z,97.68
2019-01-13T01:51:30.537Z,98.07
2019-01-13T01:54:00.547Z,98.49
2019-01-13T01:56:30.759Z,98.82
2019-01-13T01:59:01.088Z,98.74
2019-01-13T02:01:31.211Z,98.93
2019-01-13T02:04:01.437Z,98.99
2019-01-13T02:06:31.544Z,99.05
2019-01-13T02:09:01.685Z,99.03
2019-01-13T02:11:32.232Z,99.37
2019-01-13T02:14:02.552Z,99.82
2019-01-13T02:16:32.822Z,99.66
2019-01-13T02:19:03.429Z,99.33
2019-01-13T02:21:33.628Z,99.49
2019-01-13T02:24:12.678Z,99.59
2019-01-13T02:26:43.172Z,99.68
2019-01-13T02:29:13.537Z,99.59
2019-01-13T02:31:43.724Z,99.52
2019-01-13T02:34:14.255Z,99.02
2019-01-13T02:36:44.531Z,99.01
2019-01-13T02:39:14.682Z,98.95
2019-01-13T02:41:45.188Z,98.84
2019-01-13T02:44:15.444Z,98.40
2019-01-13T02:46:45.608Z,98.21
2019-01-13T02:49:15.677Z,98.30
2019-01-13T02:51:46.106Z,98.32
2019-01-13T02:54:16.468Z,98.14
2019-01-13T02:56:46.801Z,97.83
2019-01-13T02:59:17.345Z,97.52
2019-01-13T03:04:23.414Z,96.78
2019-01-13T03:06:53.637Z,96.50
2019-01-13T03:09:42.787Z,95.39
2019-01-13T03:12:13.723Z,95.39
2019-01-13T03:14:44.125Z,95.90
2019-01-13T03:17:14.402Z,96.04
2019-01-13T03:19:44.468Z,95.88
2019-01-13T03:22:14.480Z,95.80
2019-01-13T03:24:44.780Z,95.56
2019-01-13T03:27:15.193Z,95.15
2019-01-13T03:29:46.648Z,95.02
2019-01-13T03:32:16.733Z,95.17
2019-01-13T03:34:47.124Z,94.95
2019-01-13T03:37:17.537Z,94.85
2019-01-13T03:39:47.726Z,94.72
2019-01-13T03:42:18.050Z,94.26
2019-01-13T03:45:00.571Z,94.33
2019-01-13T03:47:30.947Z,94.33
2019-01-13T03:50:01.165Z,94.48
2019-01-13T03:52:31.683Z,94.17
2019-01-13T03:55:02.658Z,94.67
2019-01-13T03:57:33.058Z,94.59
2019-01-13T04:00:23.175Z,94.38
2019-01-13T04:02:53.530Z,94.38
2019-01-13T04:05:23.886Z,94.35
2019-01-13T04:08:13.118Z,93.88
2019-01-13T04:10:43.733Z,93.88
2019-01-13T04:13:14.127Z,94.05
2019-01-13T04:16:04.198Z,93.94
2019-01-13T04:18:34.381Z,93.58
2019-01-13T04:21:04.574Z,93.29
2019-01-13T04:23:34.796Z,93.06
2019-01-13T04:26:05.445Z,92.93
2019-01-13T04:28:35.731Z,92.99
2019-01-13T04:31:06.472Z,92.92
2019-01-13T04:33:36.476Z,92.91
2019-01-13T04:36:06.720Z,92.60
2019-01-13T04:38:36.846Z,92.34
2019-01-13T04:41:07.436Z,92.16
2019-01-13T04:43:37.554Z,92.11
2019-01-13T04:46:07.931Z,92.12
2019-01-13T04:48:59.532Z,92.00
2019-01-13T04:51:29.660Z,92.00
2019-01-13T04:53:59.980Z,91.87
2019-01-13T04:56:30.300Z,91.91
2019-01-13T04:59:00.700Z,92.02
2019-01-13T05:01:34.829Z,92.00
2019-01-13T05:04:21.984Z,92.30
2019-01-13T05:06:52.325Z,92.30
2019-01-13T05:09:22.395Z,92.25
2019-01-13T05:11:52.487Z,92.25
2019-01-13T05:14:22.626Z,92.37
2019-01-13T05:16:52.867Z,92.73
2019-01-13T05:19:23.240Z,92.64
2019-01-13T05:21:53.571Z,92.82
2019-01-13T05:24:23.694Z,93.01
2019-01-13T05:26:54.320Z,92.96
2019-01-13T05:29:24.342Z,92.94
2019-01-13T05:31:54.459Z,93.20
2019-01-13T05:34:24.826Z,93.51
2019-01-13T05:36:55.251Z,93.54
2019-01-13T05:39:25.507Z,93.24
2019-01-13T05:41:56.092Z,93.32
2019-01-13T05:44:26.474Z,93.44
2019-01-13T05:46:56.703Z,93.70
2019-01-13T05:49:27.199Z,93.91
2019-01-13T05:51:57.407Z,93.66
2019-01-13T05:54:27.508Z,93.59
2019-01-13T05:56:57.753Z,93.36
2019-01-13T05:59:28.046Z,93.26
2019-01-13T06:01:58.665Z,93.40
2019-01-13T06:04:28.879Z,93.42
2019-01-13T06:07:20.698Z,93.25
2019-01-13T06:09:51.142Z,93.25
2019-01-13T06:12:21.571Z,93.56
2019-01-13T06:14:52.597Z,93.39
2019-01-13T06:17:22.679Z,93.55
2019-01-13T06:19:52.794Z,93.62
2019-01-13T06:22:23.380Z,93.67
2019-01-13T06:24:53.457Z,93.52
2019-01-13T06:27:23.567Z,93.71
2019-01-13T06:29:53.642Z,93.74
2019-01-13T06:32:25.351Z,93.88
2019-01-13T06:34:55.349Z,94.41
2019-01-13T06:37:25.379Z,95.49
2019-01-13T06:39:55.509Z,95.53
2019-01-13T06:42:25.570Z,95.65
2019-01-13T06:44:55.800Z,95.55
2019-01-13T06:47:26.295Z,95.78
2019-01-13T06:49:56.430Z,95.89
2019-01-13T06:52:26.471Z,96.18
2019-01-13T06:54:56.594Z,96.19
2019-01-13T06:57:27.198Z,96.74
2019-01-13T06:59:57.503Z,96.71
2019-01-13T07:02:27.822Z,96.63
2019-01-13T07:04:58.146Z,97.05
2019-01-13T07:07:29.532Z,97.52
2019-01-13T07:09:59.617Z,98.04
2019-01-13T07:12:30.101Z,98.08
2019-01-13T07:15:00.399Z,97.95
2019-01-13T07:17:30.523Z,97.72
2019-01-13T07:20:00.651Z,97.75
2019-01-13T07:22:30.659Z,97.90
2019-01-13T07:25:02.115Z,98.02
2019-01-13T07:27:32.260Z,98.37
2019-01-13T07:30:02.523Z,98.45
2019-01-13T07:32:32.742Z,98.38
2019-01-13T07:35:03.356Z,98.43
2019-01-13T07:37:33.460Z,98.92
2019-01-13T07:40:03.993Z,98.80
2019-01-13T07:42:34.305Z,98.58
2019-01-13T07:45:04.751Z,98.42
2019-01-13T07:47:54.130Z,98.32
2019-01-13T07:50:24.700Z,98.32
2019-01-13T07:52:55.164Z,97.73
2019-01-13T07:55:27.009Z,97.62
2019-01-13T07:58:16.249Z,96.91
2019-01-13T08:00:46.806Z,96.91
2019-01-13T08:03:17.253Z,97.30
2019-01-13T08:05:49.370Z,97.56
2019-01-13T08:08:20.854Z,97.37
2019-01-13T08:11:10.509Z,96.36
2019-01-13T08:13:40.697Z,96.36
2019-01-13T08:16:10.829Z,96.07
2019-01-13T08:19:00.699Z,95.94
2019-01-13T08:21:31.150Z,95.94
2019-01-13T08:24:01.288Z,95.61
2019-01-13T08:29:22.716Z,95.96
2019-01-13T08:31:53.108Z,95.96
2019-01-13T08:34:23.281Z,95.42
2019-01-13T08:36:54.191Z,95.48
2019-01-13T08:39:24.427Z,95.68
2019-01-13T08:41:54.622Z,95.85
2019-01-13T08:44:24.850Z,95.99
2019-01-13T08:47:14.172Z,95.81
2019-01-13T08:49:44.604Z,95.81
2019-01-13T08:52:14.742Z,95.79
2019-01-13T08:54:45.159Z,95.37
2019-01-13T08:57:35.699Z,95.25
2019-01-13T09:00:09.311Z,95.25
2019-01-13T09:02:39.742Z,95.22
2019-01-13T09:05:10.440Z,95.42
2019-01-13T09:07:41.835Z,95.13
2019-01-13T09:10:31.359Z,94.89
2019-01-13T09:13:01.838Z,94.89
2019-01-13T09:15:32.132Z,94.65
2019-01-13T09:18:40.251Z,94.51
2019-01-13T09:21:10.666Z,94.51
2019-01-13T09:23:41.655Z,93.87
2019-01-13T09:26:12.062Z,93.42
2019-01-13T09:28:42.437Z,92.98
2019-01-13T09:31:12.660Z,93.21
2019-01-13T09:33:42.974Z,92.57
2019-01-13T09:36:13.467Z,92.01
2019-01-13T09:38:43.717Z,92.63
2019-01-13T09:41:14.837Z,91.86
2019-01-13T09:43:45.384Z,91.49
2019-01-13T09:46:15.587Z,91.32
2019-01-13T09:48:45.961Z,91.74
2019-01-13T09:51:16.391Z,92.05
2019-01-13T09:53:46.457Z,91.72
2019-01-13T09:56:16.770Z,91.95
2019-01-13T09:58:47.591Z,91.45
2019-01-13T10:01:17.691Z,91.40
2019-01-13T10:03:48.207Z,91.37
2019-01-13T10:06:18.372Z,91.64
2019-01-13T10:08:48.515Z,90.20
2019-01-13T10:11:18.850Z,91.35
2019-01-13T10:13:49.389Z,89.85
2019-01-13T10:16:19.470Z,89.48
2019-01-13T10:18:49.792Z,90.10
2019-01-13T10:21:20.429Z,89.79
2019-01-13T10:23:50.542Z,90.12
2019-01-13T10:26:20.853Z,89.82
2019-01-13T10:28:51.205Z,89.64
2019-01-13T10:31:21.513Z,89.44
2019-01-13T10:33:51.936Z,89.57
2019-01-13T10:36:41.336Z,89.77
2019-01-13T10:39:11.734Z,89.77
2019-01-13T10:41:52.831Z,89.60
2019-01-13T10:44:23.310Z,89.42
2019-01-13T10:46:53.565Z,90.53
2019-01-13T10:49:23.767Z,91.60
2019-01-13T10:51:54.826Z,91.14
2019-01-13T10:54:25.314Z,90.85
2019-01-13T10:56:55.528Z,90.85
2019-01-13T10:59:25.548Z,90.37
2019-01-13T11:01:55.897Z,90.81
2019-01-13T11:04:26.181Z,90.40
2019-01-13T11:06:56.653Z,90.54
2019-01-13T11:09:27.623Z,90.27
2019-01-13T11:11:57.841Z,89.69
2019-01-13T11:14:28.376Z,88.85
2019-01-13T11:16:58.694Z,88.90
2019-01-13T11:19:29.039Z,88.74
2019-01-13T11:21:59.448Z,88.68
2019-01-13T11:24:29.638Z,88.12
2019-01-13T11:26:59.811Z,87.86
2019-01-13T11:29:32.813Z,87.55
2019-01-13T11:32:02.473Z,88.03
2019-01-13T11:34:32.495Z,88.03
2019-01-13T11:37:03.040Z,87.59
2019-01-13T11:39:33.569Z,87.58
2019-01-13T11:42:03.784Z,86.95
2019-01-13T11:44:34.226Z,87.12
2019-01-13T11:47:05.624Z,86.49
2019-01-13T11:49:35.725Z,86.25
2019-01-13T11:52:06.124Z,86.85
2019-01-13T11:54:36.583Z,85.92
2019-01-13T11:57:06.784Z,86.07
2019-01-13T11:59:37.246Z,86.21
2019-01-13T12:02:07.693Z,86.25
2019-01-13T12:04:38.091Z,85.29
2019-01-13T12:07:08.237Z,85.86
2019-01-13T12:09:38.552Z,85.57
2019-01-13T12:12:08.679Z,85.90
2019-01-13T12:14:41.265Z,86.07
2019-01-13T12:17:11.825Z,86.22
2019-01-13T12:19:42.497Z,86.22
2019-01-13T12:22:12.518Z,86.24
2019-01-13T12:24:42.747Z,85.77
2019-01-13T12:27:12.805Z,85.22
2019-01-13T12:29:43.162Z,85.53
2019-01-13T12:32:13.603Z,85.53
2019-01-13T12:34:43.732Z,86.45
2019-01-13T12:37:14.261Z,85.61
2019-01-13T12:39:44.369Z,85.09
2019-01-13T12:42:14.740Z,85.03
2019-01-13T12:44:45.331Z,84.99
2019-01-13T12:47:15.527Z,85.33
2019-01-13T12:49:45.677Z,85.35
2019-01-13T12:52:16.081Z,85.37
2019-01-13T12:54:46.767Z,85.49
2019-01-13T12:57:17.207Z,85.27
2019-01-13T12:59:47.219Z,85.05
2019-01-13T13:02:17.514Z,85.28
2019-01-13T13:04:47.529Z,85.46
2019-01-13T13:07:17.790Z,85.45
2019-01-13T13:09:49.498Z,85.51
2019-01-13T13:12:19.716Z,85.51
2019-01-13T13:14:50.154Z,85.40
2019-01-13T13:17:59.841Z,85.58
2019-01-13T13:20:30.893Z,85.36
2019-01-13T13:23:01.444Z,85.43
2019-01-13T13:25:32.281Z,85.47
2019-01-13T13:28:03.757Z,85.46
2019-01-13T13:30:33.990Z,85.59
2019-01-13T13:33:04.337Z,85.59
2019-01-13T13:35:39.643Z,85.50
2019-01-13T13:38:06.646Z,85.36
2019-01-13T13:40:37.807Z,85.60
2019-01-13T13:43:46.317Z,86.41
2019-01-13T13:46:16.666Z,86.41
2019-01-13T13:49:06.015Z,86.42
2019-01-13T13:51:36.382Z,86.46
2019-01-13T13:54:06.743Z,86.79
2019-01-13T13:56:37.567Z,86.79
2019-01-13T13:59:07.796Z,86.19
2019-01-13T14:01:38.352Z,86.47
2019-01-13T14:04:08.586Z,86.20
2019-01-13T14:06:38.794Z,86.36
2019-01-13T14:09:10.464Z,86.10
2019-01-13T14:11:40.609Z,86.34
2019-01-13T14:14:11.537Z,85.98
2019-01-13T14:16:41.634Z,86.21
2019-01-13T14:19:11.926Z,85.99
2019-01-13T14:21:42.443Z,86.28
2019-01-13T14:24:12.536Z,86.12
2019-01-13T14:26:42.728Z,86.56
2019-01-13T14:29:13.016Z,86.52
2019-01-13T14:31:43.619Z,86.81
2019-01-13T14:34:13.653Z,86.75
2019-01-13T14:36:43.783Z,87.04
2019-01-13T14:39:14.189Z,86.73
2019-01-13T14:41:44.635Z,86.32
2019-01-13T14:44:14.830Z,86.33
2019-01-13T14:46:45.267Z,86.91
2019-01-13T14:49:15.537Z,87.01
2019-01-13T14:51:45.680Z,87.19
2019-01-13T14:54:16.175Z,88.01
2019-01-13T14:56:46.255Z,87.93
2019-01-13T14:59:16.538Z,87.86
2019-01-13T15:01:46.789Z,88.27
2019-01-13T15:04:36.125Z,88.74
2019-01-13T15:07:06.517Z,88.74
2019-01-13T15:09:36.761Z,88.99
2019-01-13T15:12:07.706Z,89.19
2019-01-13T15:14:37.881Z,89.30
2019-01-13T15:17:08.415Z,89.54
2019-01-13T15:19:39.756Z,89.09
2019-01-13T15:22:29.049Z,89.14
2019-01-13T15:24:59.631Z,88.96
2019-01-13T15:27:29.761Z,88.97
2019-01-13T15:30:00.336Z,89.15
2019-01-13T15:33:10.745Z,89.54
2019-01-13T15:36:01.258Z,89.39
2019-01-13T15:38:33.345Z,90.04
2019-01-13T15:41:24.000Z,89.62
2019-01-13T15:43:57.050Z,89.79
2019-01-13T15:46:29.603Z,90.04
2019-01-13T15:58:06.624Z,90.19
2019-01-13T16:00:38.307Z,90.19
2019-01-13T16:03:11.474Z,90.11
2019-01-13T16:05:41.970Z,90.53
2019-01-13T16:08:12.241Z,91.46
2019-01-13T16:10:42.388Z,91.55
2019-01-13T16:13:12.788Z,91.50
2019-01-13T16:15:43.372Z,91.25
2019-01-13T16:18:13.496Z,91.34
2019-01-13T16:20:43.979Z,91.77
2019-01-13T16:23:14.389Z,91.27
2019-01-13T16:25:46.840Z,91.42
2019-01-13T16:28:18.773Z,91.36
2019-01-13T16:30:49.360Z,91.65
2019-01-13T16:33:19.529Z,91.74
2019-01-13T16:35:49.861Z,91.60
2019-01-13T16:38:20.594Z,91.59
2019-01-13T16:40:50.702Z,91.67
2019-01-13T16:43:21.102Z,91.72
2019-01-13T16:45:51.775Z,91.64
2019-01-13T16:48:22.242Z,91.74
2019-01-13T16:50:52.526Z,91.85
2019-01-13T16:53:22.731Z,92.18
2019-01-13T16:55:53.001Z,92.32
2019-01-13T16:58:23.698Z,92.52
2019-01-13T17:00:53.987Z,92.25
2019-01-13T17:03:24.768Z,92.62
2019-01-13T17:05:55.279Z,92.44
2019-01-13T17:08:25.535Z,92.46
2019-01-13T17:10:55.706Z,92.66
2019-01-13T17:13:26.141Z,92.43
2019-01-13T17:15:56.555Z,92.53
2019-01-13T17:18:26.745Z,92.47
2019-01-13T17:20:57.784Z,93.15
2019-01-13T17:23:28.253Z,92.36
2019-01-13T17:25:58.554Z,92.73
2019-01-13T17:28:28.719Z,92.41
2019-01-13T17:30:59.146Z,92.16
2019-01-13T17:33:29.523Z,92.29
2019-01-13T17:35:59.849Z,92.60
2019-01-13T17:38:30.264Z,92.41
2019-01-13T17:41:00.302Z,92.34
2019-01-13T17:43:30.527Z,92.35
2019-01-13T17:46:00.674Z,92.74
2019-01-13T17:48:30.883Z,92.73
2019-01-13T17:51:01.707Z,92.78
2019-01-13T17:53:32.110Z,92.51
2019-01-13T17:56:22.599Z,92.96
2019-01-13T17:58:53.552Z,92.96
2019-01-13T18:01:44.824Z,92.46
2019-01-13T18:04:15.395Z,92.32
2019-01-13T18:06:45.532Z,91.99
2019-01-13T18:09:15.698Z,91.81
2019-01-13T18:11:46.120Z,91.96
2019-01-13T18:14:16.542Z,91.34
2019-01-13T18:16:46.757Z,90.73
2019-01-13T18:19:17.261Z,90.61
2019-01-13T18:21:47.366Z,90.88
2019-01-13T18:24:17.570Z,90.41
2019-01-13T18:26:47.740Z,90.34
2019-01-13T18:29:18.100Z,89.88
2019-01-13T18:31:48.352Z,89.79
2019-01-13T18:34:18.433Z,89.97
2019-01-13T18:36:49.788Z,89.95
2019-01-13T18:39:20.228Z,90.16
2019-01-13T18:41:50.282Z,89.40
2019-01-13T18:44:20.592Z,89.71
2019-01-13T18:46:50.719Z,89.67
2019-01-13T18:49:21.087Z,89.53
2019-01-13T18:51:51.225Z,89.49
2019-01-13T18:54:21.350Z,89.46
2019-01-13T18:56:51.479Z,89.27
2019-01-13T18:59:21.535Z,89.19
2019-01-13T19:04:27.831Z,89.00
2019-01-13T19:06:58.252Z,89.13
2019-01-13T19:09:28.648Z,89.03
2019-01-13T19:11:58.703Z,91.79
2019-01-13T19:14:50.755Z,90.21
2019-01-13T19:17:32.531Z,89.95
2019-01-13T19:20:23.353Z,89.95
2019-01-13T19:22:56.370Z,89.26
2019-01-13T19:25:29.887Z,89.45
2019-01-13T19:28:00.370Z,88.17
2019-01-13T19:30:30.640Z,87.75
2019-01-13T19:33:01.024Z,86.55
2019-01-13T19:35:31.729Z,86.18
2019-01-13T19:38:02.196Z,85.72
2019-01-13T19:40:32.471Z,86.21
2019-01-13T19:43:02.879Z,86.05
2019-01-13T19:45:33.451Z,85.09
2019-01-13T19:48:03.568Z,84.49
2019-01-13T19:50:33.858Z,84.81
2019-01-13T19:53:23.679Z,84.79
2019-01-13T19:55:54.300Z,84.79
2019-01-13T19:58:24.620Z,84.96
2019-01-13T20:00:54.894Z,85.96
2019-01-13T20:03:25.418Z,84.87
2019-01-13T20:05:55.736Z,85.01
2019-01-13T20:08:26.165Z,85.03
2019-01-13T20:10:57.577Z,85.14
2019-01-13T20:13:27.749Z,85.73
2019-01-13T20:16:00.755Z,86.39
2019-01-13T20:18:31.236Z,84.87
2019-01-13T20:21:01.619Z,84.33
2019-01-13T20:23:31.803Z,84.37
2019-01-13T20:26:02.484Z,84.28
2019-01-13T20:28:32.745Z,84.01
2019-01-13T20:31:05.357Z,84.36
2019-01-13T20:33:35.926Z,84.16
2019-01-13T20:36:25.227Z,83.76
2019-01-13T20:38:55.624Z,83.76
2019-01-13T20:41:25.775Z,83.84
2019-01-13T20:43:56.545Z,83.79
2019-01-13T20:46:27.745Z,84.36
2019-01-13T20:48:58.209Z,85.02
2019-01-13T20:51:28.566Z,85.49
2019-01-13T20:53:58.855Z,86.69
2019-01-13T20:59:39.358Z,88.88
2019-01-13T21:02:09.642Z,91.21
2019-01-13T21:04:40.459Z,91.62
2019-01-13T21:07:29.893Z,92.13
2019-01-13T21:10:00.413Z,93.51
2019-01-13T21:12:30.609Z,93.51
2019-01-13T21:15:00.795Z,93.59
2019-01-13T21:17:31.265Z,93.66
2019-01-13T21:20:20.885Z,94.23
2019-01-13T21:23:11.679Z,94.23
2019-01-13T21:25:42.049Z,94.18
2019-01-13T21:28:31.588Z,93.26
2019-01-13T21:31:01.766Z,93.26
2019-01-13T21:33:32.334Z,93.51
2019-01-13T21:36:02.916Z,93.25
2019-01-13T21:38:33.400Z,92.89
2019-01-13T21:41:03.806Z,93.01
2019-01-13T21:43:53.339Z,93.15
2019-01-13T21:46:23.458Z,93.15
2019-01-13T21:48:53.597Z,93.64
2019-01-13T21:51:23.914Z,95.08
2019-01-13T21:54:13.267Z,95.03
2019-01-13T21:56:43.743Z,95.03
2019-01-13T21:59:14.359Z,94.70
2019-01-13T22:01:45.689Z,94.28
2019-01-13T22:04:16.179Z,94.17
2019-01-13T22:06:46.431Z,93.94
2019-01-13T22:09:16.659Z,94.49
2019-01-13T22:11:47.279Z,94.48
2019-01-13T22:14:17.368Z,94.17
2019-01-13T22:16:47.453Z,94.56
2019-01-13T22:19:18.673Z,94.56
2019-01-13T22:21:48.797Z,94.87
2019-01-13T22:24:19.284Z,94.99
2019-01-13T22:26:49.921Z,94.99
2019-01-13T22:29:20.372Z,95.04
2019-01-13T22:31:50.518Z,94.64
2019-01-13T22:34:20.756Z,94.17
2019-01-13T22:36:51.380Z,94.02
2019-01-13T22:39:21.394Z,93.17
2019-01-13T22:41:51.810Z,93.46
2019-01-13T22:44:22.313Z,93.07
2019-01-13T22:46:52.348Z,94.01
2019-01-13T22:49:22.614Z,93.94
2019-01-13T22:51:52.823Z,94.27
2019-01-13T22:54:23.523Z,94.42
2019-01-13T22:56:53.808Z,94.83
2019-01-13T22:59:24.242Z,94.85
2019-01-13T23:01:54.792Z,94.61
2019-01-13T23:04:25.322Z,94.93
2019-01-13T23:06:55.566Z,95.42
2019-01-13T23:09:25.680Z,95.58
2019-01-13T23:11:56.209Z,95.82
2019-01-13T23:14:26.385Z,96.06
2019-01-13T23:16:56.513Z,96.37
2019-01-13T23:19:27.012Z,96.02
2019-01-13T23:21:57.523Z,96.30
2019-01-13T23:24:27.577Z,96.75
2019-01-13T23:26:57.875Z,97.13
2019-01-13T23:29:29.579Z,97.78
2019-01-13T23:31:59.629Z,97.65
2019-01-13T23:34:29.850Z,97.91
2019-01-13T23:37:00.170Z,97.15
2019-01-13T23:39:30.216Z,96.61
2019-01-13T23:42:20.658Z,95.50
2019-01-13T23:44:50.866Z,96.23
2019-01-13T23:47:40.330Z,96.77
2019-01-13T23:50:10.806Z,96.77
2019-01-13T23:52:41.652Z,96.76
2019-01-13T23:55:12.490Z,96.32
2019-01-13T23:57:42.693Z,96.42
